Warning: Javascript must be enabled to use all the features on this page!


Page Loading - Please Wait...

Click to hideNews Bulletins
Click to hide state-specific text

 


* IMPORTANT: Next Generation Station Page

USGS 02248380 HAULOVER CANAL NEAR MIMS,FL

PROVISIONAL DATA SUBJECT TO REVISION

Click to hidestation-specific text

This gage is monitored in cooperation with the St. Johns River Water Management District.

Link to the St. Johns River Water Management District.

REMARKS.--Computed discharge at this station may differ from individual measurements because of changes in tidal influence, wind, or other factors.

Available Parameters Available Period
  
2007-10-01  2016-10-01
1995-08-03  2020-02-21
2007-10-01  2020-02-21
2007-10-01  2016-10-01
2010-10-01  2020-02-21







 (7)
 

  -- or --

 


 

Summary of all available data for this site
Instantaneous-data availability statement






Date / Time




Dis-
charge,
ft3/s,




Gage
height,
feet,
Stream
water
level
above
NAVD
1988,
feet,
02/14/2020 00:00 EST1,050P  0.59P  -0.65P  
02/14/2020 00:15 EST1,340P  0.59P  -0.65P  
02/14/2020 00:30 EST1,460P  0.58P  -0.66P  
02/14/2020 00:45 EST1,520P  0.58P  -0.66P  
02/14/2020 01:00 EST1,620P  0.58P  -0.66P  
02/14/2020 01:15 EST1,500P  0.58P  -0.66P  
02/14/2020 01:30 EST1,520P  0.58P  -0.66P  
02/14/2020 01:45 EST1,320P  0.58P  -0.66P  
02/14/2020 02:00 EST1,170P  0.59P  -0.65P  
02/14/2020 02:15 EST856P  0.59P  -0.65P  
02/14/2020 02:30 EST564P  0.60P  -0.64P  
02/14/2020 02:45 EST408P  0.60P  -0.64P  
02/14/2020 03:00 EST291P  0.61P  -0.63P  
02/14/2020 03:15 EST-179P  0.61P  -0.63P  
02/14/2020 03:30 EST-608P  0.61P  -0.63P  
02/14/2020 03:45 EST-1,080P  0.61P  -0.63P  
02/14/2020 04:00 EST-1,430P  0.61P  -0.63P  
02/14/2020 04:15 EST-1,820P  0.60P  -0.64P  
02/14/2020 04:30 EST-2,270P  0.59P  -0.65P  
02/14/2020 04:45 EST-2,640P  0.59P  -0.65P  
02/14/2020 05:00 EST-3,010P  0.59P  -0.65P  
02/14/2020 05:15 EST-3,240P  0.58P  -0.66P  
02/14/2020 05:30 EST-3,070P  0.58P  -0.66P  
02/14/2020 05:45 EST-2,930P  0.58P  -0.66P  
02/14/2020 06:00 EST-3,010P  0.58P  -0.66P  
02/14/2020 06:15 EST-3,140P  0.58P  -0.66P  
02/14/2020 06:30 EST-2,950P  0.58P  -0.66P  
02/14/2020 06:45 EST-2,750P  0.58P  -0.66P  
02/14/2020 07:00 EST-2,890P  0.58P  -0.66P  
02/14/2020 07:15 EST-2,600P  0.58P  -0.66P  
02/14/2020 07:30 EST-2,380P  0.58P  -0.66P  
02/14/2020 07:45 EST-2,360P  0.57P  -0.67P  
02/14/2020 08:00 EST-2,260P  0.57P  -0.67P  
02/14/2020 08:15 EST-2,240P  0.57P  -0.67P  
02/14/2020 08:30 EST-2,260P  0.57P  -0.67P  
02/14/2020 08:45 EST-3,200P  0.58P  -0.66P  
02/14/2020 09:00 EST-3,720P  0.54P  -0.70P  
02/14/2020 09:15 EST-3,790P  0.53P  -0.71P  
02/14/2020 09:30 EST-3,870P  0.53P  -0.71P  
02/14/2020 09:45 EST-4,230P  0.49P  -0.75P  
02/14/2020 10:00 EST-4,190P  0.49P  -0.75P  
02/14/2020 10:15 EST-4,170P  0.49P  -0.75P  
02/14/2020 10:30 EST-4,630P  0.45P  -0.79P  
02/14/2020 10:45 EST-5,160P  0.44P  -0.80P  
02/14/2020 11:00 EST-5,670P  0.45P  -0.79P  
02/14/2020 11:15 EST-6,070P  0.37P  -0.87P  
02/14/2020 11:30 EST-6,230P  0.35P  -0.89P  
02/14/2020 11:45 EST-6,160P  0.32P  -0.92P  
02/14/2020 12:00 EST-6,090P  0.33P  -0.91P  
02/14/2020 12:15 EST-5,980P  0.31P  -0.93P  
02/14/2020 12:30 EST-5,860P  0.29P  -0.95P  
02/14/2020 12:45 EST-5,870P  0.30P  -0.94P  
02/14/2020 13:00 EST-5,750P  0.29P  -0.95P  
02/14/2020 13:15 EST-5,580P  0.31P  -0.93P  
02/14/2020 13:30 EST-5,240P  0.31P  -0.93P  
02/14/2020 13:45 EST-5,210P  0.33P  -0.91P  
02/14/2020 14:00 EST-5,370P  0.32P  -0.92P  
02/14/2020 14:15 EST-5,510P  0.31P  -0.93P  
02/14/2020 14:30 EST-5,300P  0.32P  -0.92P  
02/14/2020 14:45 EST-5,170P  0.33P  -0.91P  
02/14/2020 15:00 EST-5,340P  0.32P  -0.92P  
02/14/2020 15:15 EST-5,560P  0.31P  -0.93P  
02/14/2020 15:30 EST-5,480P  0.30P  -0.94P  
02/14/2020 15:45 EST-5,570P  0.32P  -0.92P  
02/14/2020 16:00 EST-5,980P  0.30P  -0.94P  
02/14/2020 16:15 EST-6,160P  0.28P  -0.96P  
02/14/2020 16:30 EST-6,220P  0.28P  -0.96P  
02/14/2020 16:45 EST-6,200P  0.27P  -0.97P  
02/14/2020 17:00 EST-6,320P  0.25P  -0.99P  
02/14/2020 17:15 EST-6,360P  0.25P  -0.99P  
02/14/2020 17:30 EST-6,390P  0.23P  -1.01P  
02/14/2020 17:45 EST-6,620P  0.23P  -1.01P  
02/14/2020 18:00 EST-6,990P  0.21P  -1.03P  
02/14/2020 18:15 EST-7,220P  0.21P  -1.03P  
02/14/2020 18:30 EST-7,270P  0.20P  -1.04P  
02/14/2020 18:45 EST-7,290P  0.20P  -1.04P  
02/14/2020 19:00 EST-7,560P  0.20P  -1.04P  
02/14/2020 19:15 EST-7,840P  0.19P  -1.05P  
02/14/2020 19:30 EST-7,820P  0.19P  -1.05P  
02/14/2020 19:45 EST-7,900P  0.19P  -1.05P  
02/14/2020 20:00 EST-7,970P  0.19P  -1.05P  
02/14/2020 20:15 EST-7,920P  0.19P  -1.05P  
02/14/2020 20:30 EST-7,730P  0.13P  -1.11P  
02/14/2020 20:45 EST-7,550P  0.13P  -1.11P  
02/14/2020 21:00 EST-7,560P  0.12P  -1.12P  
02/14/2020 21:15 EST-7,600P  0.12P  -1.12P  
02/14/2020 21:30 EST-7,550P  0.11P  -1.13P  
02/14/2020 21:45 EST-7,680P  0.10P  -1.14P  
02/14/2020 22:00 EST-7,630P  0.10P  -1.14P  
02/14/2020 22:15 EST-7,610P  0.10P  -1.14P  
02/14/2020 22:30 EST-7,750P  0.09P  -1.15P  
02/14/2020 22:45 EST-7,650P  0.07P  -1.17P  
02/14/2020 23:00 EST-7,740P  0.07P  -1.17P  
02/14/2020 23:15 EST-7,680P  0.05P  -1.19P  
02/14/2020 23:30 EST-7,680P  0.05P  -1.19P  
02/14/2020 23:45 EST-7,640P  0.05P  -1.19P  
02/15/2020 00:00 EST-7,520P  0.05P  -1.19P  
02/15/2020 00:15 EST-7,690P  0.05P  -1.19P  
02/15/2020 00:30 EST-7,590P  0.02P  -1.22P  
02/15/2020 00:45 EST-7,520P  0.01P  -1.23P  
02/15/2020 01:00 EST-7,630P  0.00P  -1.24P  
02/15/2020 01:15 EST-7,800P  -0.01P  -1.25P  
02/15/2020 01:30 EST-7,580P  -0.02P  -1.26P  
02/15/2020 01:45 EST-7,660P  -0.02P  -1.26P  
02/15/2020 02:00 EST-7,610P  -0.04P  -1.28P  
02/15/2020 02:15 EST-7,490P  -0.05P  -1.29P  
02/15/2020 02:30 EST-7,480P  -0.05P  -1.29P  
02/15/2020 02:45 EST-7,500P  -0.04P  -1.28P  
02/15/2020 03:00 EST-7,390P  -0.04P  -1.28P  
02/15/2020 03:15 EST-7,510P  -0.05P  -1.29P  
02/15/2020 03:30 EST-7,490P  -0.05P  -1.29P  
02/15/2020 03:45 EST-7,500P  -0.08P  -1.32P  
02/15/2020 04:00 EST-7,680P  -0.08P  -1.32P  
02/15/2020 04:15 EST-7,660P  -0.09P  -1.33P  
02/15/2020 04:30 EST-7,680P  -0.09P  -1.33P  
02/15/2020 04:45 EST-7,770P  -0.09P  -1.33P  
02/15/2020 05:00 EST-7,700P  -0.09P  -1.33P  
02/15/2020 05:15 EST-7,470P  -0.09P  -1.33P  
02/15/2020 05:30 EST-7,680P  -0.09P  -1.33P  
02/15/2020 05:45 EST-7,420P  -0.09P  -1.33P  
02/15/2020 06:00 EST-7,740P  -0.09P  -1.33P  
02/15/2020 06:15 EST-7,400P  -0.09P  -1.33P  
02/15/2020 06:30 EST-7,530P  -0.09P  -1.33P  
02/15/2020 06:45 EST-7,620P  -0.09P  -1.33P  
02/15/2020 07:00 EST-7,770P  -0.09P  -1.33P  
02/15/2020 07:15 EST-7,800P  -0.08P  -1.32P  
02/15/2020 07:30 EST-7,660P  -0.09P  -1.33P  
02/15/2020 07:45 EST-7,720P  -0.09P  -1.33P  
02/15/2020 08:00 EST-7,590P  -0.08P  -1.32P  
02/15/2020 08:15 EST-7,540P  -0.07P  -1.31P  
02/15/2020 08:30 EST-7,330P  -0.05P  -1.29P  
02/15/2020 08:45 EST-7,190P  -0.05P  -1.29P  
02/15/2020 09:00 EST-7,270P  -0.04P  -1.28P  
02/15/2020 09:15 EST-7,200P  -0.04P  -1.28P  
02/15/2020 09:30 EST-7,120P  -0.04P  -1.28P  
02/15/2020 09:45 EST-6,860P  -0.04P  -1.28P  
02/15/2020 10:00 EST-6,710P  -0.04P  -1.28P  
02/15/2020 10:15 EST-6,560P  0.00P  -1.24P  
02/15/2020 10:30 EST-6,300P  0.01P  -1.23P  
02/15/2020 10:45 EST-6,020P  0.02P  -1.22P  
02/15/2020 11:00 EST-5,910P  0.03P  -1.21P  
02/15/2020 11:15 EST-5,750P  0.03P  -1.21P  
02/15/2020 11:30 EST-5,700P  0.05P  -1.19P  
02/15/2020 11:45 EST-5,600P  0.05P  -1.19P  
02/15/2020 12:00 EST-5,600P  0.05P  -1.19P  
02/15/2020 12:15 EST-5,510P  0.05P  -1.19P  
02/15/2020 12:30 EST-5,340P  0.05P  -1.19P  
02/15/2020 12:45 EST-5,140P  0.07P  -1.17P  
02/15/2020 13:00 EST-4,860P  0.08P  -1.16P  
02/15/2020 13:15 EST-4,820P  0.13P  -1.11P  
02/15/2020 13:30 EST-4,550P  0.13P  -1.11P  
02/15/2020 13:45 EST-4,510P  0.17P  -1.07P  
02/15/2020 14:00 EST-4,460P  0.14P  -1.10P  
02/15/2020 14:15 EST-4,590P  0.14P  -1.10P  
02/15/2020 14:30 EST-4,310P  0.16P  -1.08P  
02/15/2020 14:45 EST-4,000P  0.18P  -1.06P  
02/15/2020 15:00 EST-3,880P  0.18P  -1.06P  
02/15/2020 15:15 EST-3,640P  0.20P  -1.04P  
02/15/2020 15:30 EST-3,560P  0.20P  -1.04P  
02/15/2020 15:45 EST-3,200P  0.21P  -1.03P  
02/15/2020 16:00 EST-3,280P  0.22P  -1.02P  
02/15/2020 16:15 EST-3,260P  0.22P  -1.02P  
02/15/2020 16:30 EST-3,250P  0.24P  -1.00P  
02/15/2020 16:45 EST-3,190P  0.25P  -0.99P  
02/15/2020 17:00 EST-3,080P  0.26P  -0.98P  
02/15/2020 17:15 EST-2,830P  0.27P  -0.97P  
02/15/2020 17:30 EST-2,780P  0.28P  -0.96P  
02/15/2020 17:45 EST-2,740P  0.29P  -0.95P  
02/15/2020 18:00 EST-2,710P  0.31P  -0.93P  
02/15/2020 18:15 EST-2,540P  0.33P  -0.91P  
02/15/2020 18:30 EST-2,340P  0.33P  -0.91P  
02/15/2020 18:45 EST-2,310P  0.34P  -0.90P  
02/15/2020 19:00 EST-2,440P  0.34P  -0.90P  
02/15/2020 19:15 EST-2,310P  0.34P  -0.90P  
02/15/2020 19:30 EST-2,410P  0.35P  -0.89P  
02/15/2020 19:45 EST-2,390P  0.35P  -0.89P  
02/15/2020 20:00 EST-2,270P  0.35P  -0.89P  
02/15/2020 20:15 EST-2,170P  0.35P  -0.89P  
02/15/2020 20:30 EST-1,950P  0.36P  -0.88P  
02/15/2020 20:45 EST-1,730P  0.37P  -0.87P  
02/15/2020 21:00 EST-1,580P  0.38P  -0.86P  
02/15/2020 21:15 EST-1,540P  0.38P  -0.86P  
02/15/2020 21:30 EST-1,470P  0.38P  -0.86P  
02/15/2020 21:45 EST-1,410P  0.37P  -0.87P  
02/15/2020 22:00 EST-1,290P  0.37P  -0.87P  
02/15/2020 22:15 EST-1,020P  0.37P  -0.87P  
02/15/2020 22:30 EST-503P  0.37P  -0.87P  
02/15/2020 22:45 EST-79.6P  0.37P  -0.87P  
02/15/2020 23:00 EST517P  0.37P  -0.87P  
02/15/2020 23:15 EST1,250P  0.37P  -0.87P  
02/15/2020 23:30 EST1,940P  0.37P  -0.87P  
02/15/2020 23:45 EST2,560P  0.36P  -0.88P  
02/16/2020 00:00 EST2,900P  0.35P  -0.89P  
02/16/2020 00:15 EST3,110P  0.33P  -0.91P  
02/16/2020 00:30 EST3,240P  0.33P  -0.91P  
02/16/2020 00:45 EST3,490P  0.34P  -0.90P  
02/16/2020 01:00 EST3,630P  0.34P  -0.90P  
02/16/2020 01:15 EST3,670P  0.34P  -0.90P  
02/16/2020 01:30 EST3,630P  0.34P  -0.90P  
02/16/2020 01:45 EST3,670P  0.34P  -0.90P  
02/16/2020 02:00 EST3,530P  0.34P  -0.90P  
02/16/2020 02:15 EST3,570P  0.35P  -0.89P  
02/16/2020 02:30 EST3,500P  0.36P  -0.88P  
02/16/2020 02:45 EST3,380P  0.36P  -0.88P  
02/16/2020 03:00 EST3,290P  0.37P  -0.87P  
02/16/2020 03:15 EST3,210P  0.37P  -0.87P  
02/16/2020 03:30 EST3,080P  0.37P  -0.87P  
02/16/2020 03:45 EST3,020P  0.37P  -0.87P  
02/16/2020 04:00 EST2,790P  0.39P  -0.85P  
02/16/2020 04:15 EST2,680P  0.40P  -0.84P  
02/16/2020 04:30 EST2,470P  0.41P  -0.83P  
02/16/2020 04:45 EST2,220P  0.41P  -0.83P  
02/16/2020 05:00 EST2,010P  0.42P  -0.82P  
02/16/2020 05:15 EST1,830P  0.43P  -0.81P  
02/16/2020 05:30 EST1,560P  0.44P  -0.80P  
02/16/2020 05:45 EST1,250P  0.45P  -0.79P  
02/16/2020 06:00 EST810P  0.45P  -0.79P  
02/16/2020 06:15 EST656P  0.48P  -0.76P  
02/16/2020 06:30 EST55.6P  0.49P  -0.75P  
02/16/2020 06:45 EST-274P  0.49P  -0.75P  
02/16/2020 07:00 EST-856P  0.49P  -0.75P  
02/16/2020 07:15 EST-1,280P  0.49P  -0.75P  
02/16/2020 07:30 EST-1,750P  0.48P  -0.76P  
02/16/2020 07:45 EST-2,210P  0.48P  -0.76P  
02/16/2020 08:00 EST-2,600P  0.48P  -0.76P  
02/16/2020 08:15 EST-2,410P  0.48P  -0.76P  
02/16/2020 08:30 EST-2,540P  0.48P  -0.76P  
02/16/2020 08:45 EST-2,370P  0.48P  -0.76P  
02/16/2020 09:00 EST-2,170P  0.49P  -0.75P  
02/16/2020 09:15 EST-1,920P  0.49P  -0.75P  
02/16/2020 09:30 EST-1,790P  0.49P  -0.75P  
02/16/2020 09:45 EST-1,520P  0.50P  -0.74P  
02/16/2020 10:00 EST-1,210P  0.52P  -0.72P  
02/16/2020 10:15 EST-780P  0.53P  -0.71P  
02/16/2020 10:30 EST-314P  0.53P  -0.71P  
02/16/2020 10:45 EST581P  0.54P  -0.70P  
02/16/2020 11:00 EST1,530P  0.54P  -0.70P  
02/16/2020 11:15 EST2,330P  0.53P  -0.71P  
02/16/2020 11:30 EST2,850P  0.52P  -0.72P  
02/16/2020 11:45 EST3,200P  0.51P  -0.73P  
02/16/2020 12:00 EST3,650P  0.50P  -0.74P  
02/16/2020 12:15 EST3,940P  0.50P  -0.74P  
02/16/2020 12:30 EST3,990P  0.49P  -0.75P  
02/16/2020 12:45 EST4,050P  0.48P  -0.76P  
02/16/2020 13:00 EST4,200P  0.47P  -0.77P  
02/16/2020 13:15 EST4,450P  0.47P  -0.77P  
02/16/2020 13:30 EST4,700P  0.45P  -0.79P  
02/16/2020 13:45 EST5,050P  0.46P  -0.78P  
02/16/2020 14:00 EST5,180P  0.45P  -0.79P  
02/16/2020 14:15 EST5,090P  0.46P  -0.78P  
02/16/2020 14:30 EST5,060P  0.48P  -0.76P  
02/16/2020 14:45 EST5,110P  0.46P  -0.78P  
02/16/2020 15:00 EST4,960P  0.48P  -0.76P  
02/16/2020 15:15 EST4,720P  0.47P  -0.77P  
02/16/2020 15:30 EST4,840P  0.47P  -0.77P  
02/16/2020 15:45 EST5,070P  0.47P  -0.77P  
02/16/2020 16:00 EST5,270P  0.48P  -0.76P  
02/16/2020 16:15 EST5,130P  0.47P  -0.77P  
02/16/2020 16:30 EST4,900P  0.49P  -0.75P  
02/16/2020 16:45 EST5,000P  0.49P  -0.75P  
02/16/2020 17:00 EST5,100P  0.49P  -0.75P  
02/16/2020 17:15 EST4,910P  0.50P  -0.74P  
02/16/2020 17:30 EST4,750P  0.50P  -0.74P  
02/16/2020 17:45 EST4,660P  0.52P  -0.72P  
02/16/2020 18:00 EST4,570P  0.53P  -0.71P  
02/16/2020 18:15 EST4,670P  0.54P  -0.70P  
02/16/2020 18:30 EST4,550P  0.55P  -0.69P  
02/16/2020 18:45 EST4,340P  0.56P  -0.68P  
02/16/2020 19:00 EST4,110P  0.57P  -0.67P  
02/16/2020 19:15 EST3,970P  0.57P  -0.67P  
02/16/2020 19:30 EST3,820P  0.58P  -0.66P  
02/16/2020 19:45 EST3,700P  0.58P  -0.66P  
02/16/2020 20:00 EST3,820P  0.58P  -0.66P  
02/16/2020 20:15 EST3,720P  0.58P  -0.66P  
02/16/2020 20:30 EST3,480P  0.63P  -0.61P  
02/16/2020 20:45 EST3,270P  0.64P  -0.60P  
02/16/2020 21:00 EST3,590P  0.70P  -0.54P  
02/16/2020 21:15 EST4,490P  0.74P  -0.50P  
02/16/2020 21:30 EST4,460P  0.69P  -0.55P  
02/16/2020 21:45 EST2,790P  0.69P  -0.55P  
02/16/2020 22:00 EST2,000P  0.69P  -0.55P  
02/16/2020 22:15 EST1,530P  0.69P  -0.55P  
02/16/2020 22:30 EST1,080P  0.69P  -0.55P  
02/16/2020 22:45 EST36.8P  0.77P  -0.47P  
02/16/2020 23:00 EST-496P  0.77P  -0.47P  
02/16/2020 23:15 EST-1,170P  0.76P  -0.48P  
02/16/2020 23:30 EST-1,660P  0.76P  -0.48P  
02/16/2020 23:45 EST-2,020P  0.76P  -0.48P  
02/17/2020 00:00 EST-2,540P  0.72P  -0.52P  
02/17/2020 00:15 EST-2,870P  0.69P  -0.55P  
02/17/2020 00:30 EST-2,950P  0.68P  -0.56P  
02/17/2020 00:45 EST-2,650P  0.68P  -0.56P  
02/17/2020 01:00 EST-2,120P  0.67P  -0.57P  
02/17/2020 01:15 EST-1,730P  0.67P  -0.57P  
02/17/2020 01:30 EST-1,340P  0.67P  -0.57P  
02/17/2020 01:45 EST-827P  0.68P  -0.56P  
02/17/2020 02:00 EST-101P  0.68P  -0.56P  
02/17/2020 02:15 EST920P  0.68P  -0.56P  
02/17/2020 02:30 EST1,700P  0.67P  -0.57P  
02/17/2020 02:45 EST2,170P  0.67P  -0.57P  
02/17/2020 03:00 EST2,510P  0.67P  -0.57P  
02/17/2020 03:15 EST2,530P  0.67P  -0.57P  
02/17/2020 03:30 EST2,370P  0.67P  -0.57P  
02/17/2020 03:45 EST2,140P  0.67P  -0.57P  
02/17/2020 04:00 EST2,120P  0.67P  -0.57P  
02/17/2020 04:15 EST1,840P  0.67P  -0.57P  
02/17/2020 04:30 EST1,330P  0.67P  -0.57P  
02/17/2020 04:45 EST900P  0.67P  -0.57P  
02/17/2020 05:00 EST527P  0.68P  -0.56P  
02/17/2020 05:15 EST-22.2P  0.67P  -0.57P  
02/17/2020 05:30 EST-630P  0.67P  -0.57P  
02/17/2020 05:45 EST-1,400P  0.67P  -0.57P  
02/17/2020 06:00 EST-2,080P  0.67P  -0.57P  
02/17/2020 06:15 EST-2,710P  0.67P  -0.57P  
02/17/2020 06:30 EST-3,160P  0.67P  -0.57P  
02/17/2020 06:45 EST-3,510P  0.67P  -0.57P  
02/17/2020 07:00 EST-3,990P  0.67P  -0.57P  
02/17/2020 07:15 EST-3,910P  0.67P  -0.57P  
02/17/2020 07:30 EST-3,930P  0.62P  -0.62P  
02/17/2020 07:45 EST-3,950P  0.62P  -0.62P  
02/17/2020 08:00 EST-4,050P  0.61P  -0.63P  
02/17/2020 08:15 EST-4,130P  0.61P  -0.63P  
02/17/2020 08:30 EST-4,130P  0.61P  -0.63P  
02/17/2020 08:45 EST-4,050P  0.62P  -0.62P  
02/17/2020 09:00 EST-4,210P  0.62P  -0.62P  
02/17/2020 09:15 EST-4,300P  0.62P  -0.62P  
02/17/2020 09:30 EST-4,340P  0.62P  -0.62P  
02/17/2020 09:45 EST-4,340P  0.62P  -0.62P  
02/17/2020 10:00 EST-4,420P  0.62P  -0.62P  
02/17/2020 10:15 EST-4,410P  0.63P  -0.61P  
02/17/2020 10:30 EST-4,270P  0.63P  -0.61P  
02/17/2020 10:45 EST-4,350P  0.63P  -0.61P  
02/17/2020 11:00 EST-4,310P  0.64P  -0.60P  
02/17/2020 11:15 EST-4,100P  0.64P  -0.60P  
02/17/2020 11:30 EST-4,090P  0.63P  -0.61P  
02/17/2020 11:45 EST-3,900P  0.64P  -0.60P  
02/17/2020 12:00 EST-3,760P  0.64P  -0.60P  
02/17/2020 12:15 EST-3,620P  0.63P  -0.61P  
02/17/2020 12:30 EST-3,350P  0.64P  -0.60P  
02/17/2020 12:45 EST-3,170P  0.64P  -0.60P  
02/17/2020 13:00 EST-2,800P  0.65P  -0.59P  
02/17/2020 13:15 EST-2,870P  0.66P  -0.58P  
02/17/2020 13:30 EST-2,670P  0.66P  -0.58P  
02/17/2020 13:45 EST-2,530P  0.66P  -0.58P  
02/17/2020 14:00 EST-2,590P  0.66P  -0.58P  
02/17/2020 14:15 EST-2,590P  0.66P  -0.58P  
02/17/2020 14:30 EST-2,850P  0.66P  -0.58P  
02/17/2020 14:45 EST-2,820P  0.64P  -0.60P  
02/17/2020 15:00 EST-2,820P  0.64P  -0.60P  
02/17/2020 15:15 EST-2,780P  0.65P  -0.59P  
02/17/2020 15:30 EST-2,800P  0.65P  -0.59P  
02/17/2020 15:45 EST-2,820P  0.65P  -0.59P  
02/17/2020 16:00 EST-3,100P  0.65P  -0.59P  
02/17/2020 16:15 EST-3,250P  0.64P  -0.60P  
02/17/2020 16:30 EST-3,570P  0.64P  -0.60P  
02/17/2020 16:45 EST-3,820P  0.62P  -0.62P  
02/17/2020 17:00 EST-3,890P  0.61P  -0.63P  
02/17/2020 17:15 EST-3,910P  0.61P  -0.63P  
02/17/2020 17:30 EST-3,810P  0.61P  -0.63P  
02/17/2020 17:45 EST-3,800P  0.62P  -0.62P  
02/17/2020 18:00 EST-3,930P  0.62P  -0.62P  
02/17/2020 18:15 EST-4,190P  0.61P  -0.63P  
02/17/2020 18:30 EST-4,300P  0.59P  -0.65P  
02/17/2020 18:45 EST-4,430P  0.58P  -0.66P  
02/17/2020 19:00 EST-4,340P  0.60P  -0.64P  
02/17/2020 19:15 EST-4,190P  0.61P  -0.63P  
02/17/2020 19:30 EST-4,070P  0.62P  -0.62P  
02/17/2020 19:45 EST-4,110P  0.62P  -0.62P  
02/17/2020 20:00 EST-4,190P  0.62P  -0.62P  
02/17/2020 20:15 EST-4,090P  0.62P  -0.62P  
02/17/2020 20:30 EST-3,890P  0.62P  -0.62P  
02/17/2020 20:45 EST-3,720P  0.62P  -0.62P  
02/17/2020 21:00 EST-3,640P  0.62P  -0.62P  
02/17/2020 21:15 EST-3,540P  0.62P  -0.62P  
02/17/2020 21:30 EST-3,390P  0.62P  -0.62P  
02/17/2020 21:45 EST-3,180P  0.69P  -0.55P  
02/17/2020 22:00 EST-3,150P  0.70P  -0.54P  
02/17/2020 22:15 EST-3,170P  0.69P  -0.55P  
02/17/2020 22:30 EST-2,990P  0.69P  -0.55P  
02/17/2020 22:45 EST-2,810P  0.70P  -0.54P  
02/17/2020 23:00 EST-2,540P  0.70P  -0.54P  
02/17/2020 23:15 EST-2,210P  0.71P  -0.53P  
02/17/2020 23:30 EST-2,170P  0.71P  -0.53P  
02/17/2020 23:45 EST-2,210P  0.71P  -0.53P  
02/18/2020 00:00 EST-2,190P  0.71P  -0.53P  
02/18/2020 00:15 EST-1,990P  0.71P  -0.53P  
02/18/2020 00:30 EST-1,830P  0.70P  -0.54P  
02/18/2020 00:45 EST-1,690P  0.69P  -0.55P  
02/18/2020 01:00 EST-1,550P  0.69P  -0.55P  
02/18/2020 01:15 EST-1,360P  0.69P  -0.55P  
02/18/2020 01:30 EST-1,200P  0.68P  -0.56P  
02/18/2020 01:45 EST-866P  0.68P  -0.56P  
02/18/2020 02:00 EST-768P  0.68P  -0.56P  
02/18/2020 02:15 EST-572P  0.68P  -0.56P  
02/18/2020 02:30 EST-179P  0.68P  -0.56P  
02/18/2020 02:45 EST154P  0.68P  -0.56P  
02/18/2020 03:00 EST370P  0.67P  -0.57P  
02/18/2020 03:15 EST743P  0.67P  -0.57P  
02/18/2020 03:30 EST1,040P  0.67P  -0.57P  
02/18/2020 03:45 EST1,370P  0.67P  -0.57P  
02/18/2020 04:00 EST1,550P  0.67P  -0.57P  
02/18/2020 04:15 EST1,840P  0.67P  -0.57P  
02/18/2020 04:30 EST1,940P  0.67P  -0.57P  
02/18/2020 04:45 EST1,840P  0.67P  -0.57P  
02/18/2020 05:00 EST1,630P  0.67P  -0.57P  
02/18/2020 05:15 EST1,190P  0.67P  -0.57P  
02/18/2020 05:30 EST880P  0.67P  -0.57P  
02/18/2020 05:45 EST547P  0.68P  -0.56P  
02/18/2020 06:00 EST351P  0.68P  -0.56P  
02/18/2020 06:15 EST75.9P  0.68P  -0.56P  
02/18/2020 06:30 EST-533P  0.68P  -0.56P  
02/18/2020 06:45 EST-1,040P  0.68P  -0.56P  
02/18/2020 07:00 EST-1,490P  0.68P  -0.56P  
02/18/2020 07:15 EST-1,950P  0.68P  -0.56P  
02/18/2020 07:30 EST-2,360P  0.68P  -0.56P  
02/18/2020 07:45 EST-2,690P  0.68P  -0.56P  
02/18/2020 08:00 EST-2,770P  0.67P  -0.57P  
02/18/2020 08:15 EST-2,950P  0.67P  -0.57P  
02/18/2020 08:30 EST-3,160P  0.67P  -0.57P  
02/18/2020 08:45 EST-3,280P  0.67P  -0.57P  
02/18/2020 09:00 EST-3,400P  0.67P  -0.57P  
02/18/2020 09:15 EST-3,360P  0.68P  -0.56P  
02/18/2020 09:30 EST-3,280P  0.68P  -0.56P  
02/18/2020 09:45 EST-3,420P  0.69P  -0.55P  
02/18/2020 10:00 EST-3,420P  0.69P  -0.55P  
02/18/2020 10:15 EST-3,290P  0.70P  -0.54P  
02/18/2020 10:30 EST-3,150P  0.72P  -0.52P  
02/18/2020 10:45 EST-3,000P  0.73P  -0.51P  
02/18/2020 11:00 EST-2,960P  0.75P  -0.49P  
02/18/2020 11:15 EST-2,780P  0.75P  -0.49P  
02/18/2020 11:30 EST-2,690P  0.76P  -0.48P  
02/18/2020 11:45 EST-2,550P  0.77P  -0.47P  
02/18/2020 12:00 EST-2,080P  0.77P  -0.47P  
02/18/2020 12:15 EST-1,540P  0.78P  -0.46P  
02/18/2020 12:30 EST-932P  0.80P  -0.44P  
02/18/2020 12:45 EST-181P  0.80P  -0.44P  
02/18/2020 13:00 EST690P  0.80P  -0.44P  
02/18/2020 13:15 EST1,480P  0.80P  -0.44P  
02/18/2020 13:30 EST2,110P  0.78P  -0.46P  
02/18/2020 13:45 EST2,900P  0.77P  -0.47P  
02/18/2020 14:00 EST3,490P  0.75P  -0.49P  
02/18/2020 14:15 EST4,040P  0.74P  -0.50P  
02/18/2020 14:30 EST4,150P  0.74P  -0.50P  
02/18/2020 14:45 EST4,100P  0.74P  -0.50P  
02/18/2020 15:00 EST4,100P  0.74P  -0.50P  
02/18/2020 15:15 EST4,210P  0.74P  -0.50P  
02/18/2020 15:30 EST4,530P  0.74P  -0.50P  
02/18/2020 15:45 EST4,790P  0.74P  -0.50P  
02/18/2020 16:00 EST4,940P  0.74P  -0.50P  
02/18/2020 16:15 EST5,030P  0.69P  -0.55P  
02/18/2020 16:30 EST5,220P  0.69P  -0.55P  
02/18/2020 16:45 EST5,560P  0.69P  -0.55P  
02/18/2020 17:00 EST5,630P  0.68P  -0.56P  
02/18/2020 17:15 EST5,690P  0.68P  -0.56P  
02/18/2020 17:30 EST5,690P  0.68P  -0.56P  
02/18/2020 17:45 EST5,630P  0.68P  -0.56P  
02/18/2020 18:00 EST5,810P  0.69P  -0.55P  
02/18/2020 18:15 EST5,790P  0.69P  -0.55P  
02/18/2020 18:30 EST5,730P  0.69P  -0.55P  
02/18/2020 18:45 EST5,560P  0.70P  -0.54P  
02/18/2020 19:00 EST5,330P  0.71P  -0.53P  
02/18/2020 19:15 EST5,260P  0.73P  -0.51P  
02/18/2020 19:30 EST5,140P  0.74P  -0.50P  
02/18/2020 19:45 EST5,060P  0.74P  -0.50P  
02/18/2020 20:00 EST5,030P  0.76P  -0.48P  
02/18/2020 20:15 EST4,850P  0.76P  -0.48P  
02/18/2020 20:30 EST4,640P  0.77P  -0.47P  
02/18/2020 20:45 EST4,540P  0.78P  -0.46P  
02/18/2020 21:00 EST4,310P  0.79P  -0.45P  
02/18/2020 21:15 EST4,230P  0.80P  -0.44P  
02/18/2020 21:30 EST4,210P  0.80P  -0.44P  
02/18/2020 21:45 EST4,110P  0.81P  -0.43P  
02/18/2020 22:00 EST4,000P  0.81P  -0.43P  
02/18/2020 22:15 EST3,840P  0.81P  -0.43P  
02/18/2020 22:30 EST3,840P  0.81P  -0.43P  
02/18/2020 22:45 EST3,800P  0.81P  -0.43P  
02/18/2020 23:00 EST3,720P  0.81P  -0.43P  
02/18/2020 23:15 EST3,800P  0.81P  -0.43P  
02/18/2020 23:30 EST3,920P  0.81P  -0.43P  
02/18/2020 23:45 EST3,940P  0.81P  -0.43P  
02/19/2020 00:00 EST4,000P  0.81P  -0.43P  
02/19/2020 00:15 EST3,960P  0.81P  -0.43P  
02/19/2020 00:30 EST3,960P  0.81P  -0.43P  
02/19/2020 00:45 EST4,030P  0.80P  -0.44P  
02/19/2020 01:00 EST4,150P  0.80P  -0.44P  
02/19/2020 01:15 EST4,170P  0.80P  -0.44P  
02/19/2020 01:30 EST4,190P  0.80P  -0.44P  
02/19/2020 01:45 EST4,170P  0.80P  -0.44P  
02/19/2020 02:00 EST4,090P  0.80P  -0.44P  
02/19/2020 02:15 EST3,950P  0.80P  -0.44P  
02/19/2020 02:30 EST3,990P  0.80P  -0.44P  
02/19/2020 02:45 EST3,970P  0.79P  -0.45P  
02/19/2020 03:00 EST3,890P  0.79P  -0.45P  
02/19/2020 03:15 EST3,650P  0.79P  -0.45P  
02/19/2020 03:30 EST3,460P  0.79P  -0.45P  
02/19/2020 03:45 EST3,460P  0.79P  -0.45P  
02/19/2020 04:00 EST3,260P  0.79P  -0.45P  
02/19/2020 04:15 EST3,220P  0.79P  -0.45P  
02/19/2020 04:30 EST3,120P  0.78P  -0.46P  
02/19/2020 04:45 EST2,840P  0.78P  -0.46P  
02/19/2020 05:00 EST2,780P  0.78P  -0.46P  
02/19/2020 05:15 EST2,600P  0.78P  -0.46P  
02/19/2020 05:30 EST2,530P  0.78P  -0.46P  
02/19/2020 05:45 EST2,410P  0.78P  -0.46P  
02/19/2020 06:00 EST2,150P  0.78P  -0.46P  
02/19/2020 06:15 EST2,010P  0.78P  -0.46P  
02/19/2020 06:30 EST1,720P  0.78P  -0.46P  
02/19/2020 06:45 EST1,220P  0.79P  -0.45P  
02/19/2020 07:00 EST709P  0.79P  -0.45P  
02/19/2020 07:15 EST274P  0.80P  -0.44P  
02/19/2020 07:30 EST-200P  0.80P  -0.44P  
02/19/2020 07:45 EST-616P  0.80P  -0.44P  
02/19/2020 08:00 EST-1,170P  0.80P  -0.44P  
02/19/2020 08:15 EST-1,680P  0.80P  -0.44P  
02/19/2020 08:30 EST-2,040P  0.80P  -0.44P  
02/19/2020 08:45 EST-2,460P  0.80P  -0.44P  
02/19/2020 09:00 EST-2,590P  0.79P  -0.45P  
02/19/2020 09:15 EST-2,990P  0.79P  -0.45P  
02/19/2020 09:30 EST-3,150P  0.79P  -0.45P  
02/19/2020 09:45 EST-2,670P  0.79P  -0.45P  
02/19/2020 10:00 EST-2,790P  0.80P  -0.44P  
02/19/2020 10:15 EST-2,730P  0.80P  -0.44P  
02/19/2020 10:30 EST-2,690P  0.80P  -0.44P  
02/19/2020 10:45 EST-2,590P  0.80P  -0.44P  
02/19/2020 11:00 EST-2,650P  0.81P  -0.43P  
02/19/2020 11:15 EST-2,810P  0.81P  -0.43P  
02/19/2020 11:30 EST-3,010P  0.80P  -0.44P  
02/19/2020 11:45 EST-2,970P  0.80P  -0.44P  
02/19/2020 12:00 EST-3,090P  0.80P  -0.44P  
02/19/2020 12:15 EST-3,010P  0.80P  -0.44P  
02/19/2020 12:30 EST-2,830P  0.81P  -0.43P  
02/19/2020 12:45 EST-2,560P  0.81P  -0.43P  
02/19/2020 13:00 EST-2,690P  0.80P  -0.44P  
02/19/2020 13:15 EST-2,890P  0.80P  -0.44P  
02/19/2020 13:30 EST-3,170P  0.79P  -0.45P  
02/19/2020 13:45 EST-3,460P  0.79P  -0.45P  
02/19/2020 14:00 EST-3,560P  0.77P  -0.47P  
02/19/2020 14:15 EST-3,690P  0.77P  -0.47P  
02/19/2020 14:30 EST-3,840P  0.73P  -0.51P  
02/19/2020 14:45 EST-4,190P  0.72P  -0.52P  
02/19/2020 15:00 EST-4,310P  0.71P  -0.53P  
02/19/2020 15:15 EST-4,210P  0.70P  -0.54P  
02/19/2020 15:30 EST-4,030P  0.70P  -0.54P  
02/19/2020 15:45 EST-4,010P  0.69P  -0.55P  
02/19/2020 16:00 EST-3,950P  0.68P  -0.56P  
02/19/2020 16:15 EST-4,180P  0.67P  -0.57P  
02/19/2020 16:30 EST-3,970P  0.68P  -0.56P  
02/19/2020 16:45 EST-3,870P  0.67P  -0.57P  
02/19/2020 17:00 EST-3,710P  0.66P  -0.58P  
02/19/2020 17:15 EST-3,430P  0.66P  -0.58P  
02/19/2020 17:30 EST-3,160P  0.67P  -0.57P  
02/19/2020 17:45 EST-2,810P  0.67P  -0.57P  
02/19/2020 18:00 EST-2,550P  0.68P  -0.56P  
02/19/2020 18:15 EST-2,220P  0.68P  -0.56P  
02/19/2020 18:30 EST-2,220P  0.70P  -0.54P  
02/19/2020 18:45 EST-1,890P  0.70P  -0.54P  
02/19/2020 19:00 EST-1,540P  0.70P  -0.54P  
02/19/2020 19:15 EST-1,400P  0.72P  -0.52P  
02/19/2020 19:30 EST-1,260P  0.72P  -0.52P  
02/19/2020 19:45 EST-1,180P  0.72P  -0.52P  
02/19/2020 20:00 EST-1,130P  0.74P  -0.50P  
02/19/2020 20:15 EST-1,180P  0.73P  -0.51P  
02/19/2020 20:30 EST-1,460P  0.73P  -0.51P  
02/19/2020 20:45 EST-1,580P  0.73P  -0.51P  
02/19/2020 21:00 EST-1,700P  0.74P  -0.50P  
02/19/2020 21:15 EST-1,780P  0.74P  -0.50P  
02/19/2020 21:30 EST-1,790P  0.73P  -0.51P  
02/19/2020 21:45 EST-2,030P  0.73P  -0.51P  
02/19/2020 22:00 EST-2,130P  0.73P  -0.51P  
02/19/2020 22:15 EST-2,380P  0.72P  -0.52P  
02/19/2020 22:30 EST-2,660P  0.73P  -0.51P  
02/19/2020 22:45 EST-2,970P  0.72P  -0.52P  
02/19/2020 23:00 EST-3,050P  0.71P  -0.53P  
02/19/2020 23:15 EST-2,910P  0.71P  -0.53P  
02/19/2020 23:30 EST-2,870P  0.71P  -0.53P  
02/19/2020 23:45 EST-2,970P  0.70P  -0.54P  
02/20/2020 00:00 EST-2,970P  0.70P  -0.54P  
02/20/2020 00:15 EST-2,890P  0.70P  -0.54P  
02/20/2020 00:30 EST-2,670P  0.69P  -0.55P  
02/20/2020 00:45 EST-2,580P  0.69P  -0.55P  
02/20/2020 01:00 EST-2,380P  0.69P  -0.55P  
02/20/2020 01:15 EST-2,120P  0.69P  -0.55P  
02/20/2020 01:30 EST-1,770P  0.69P  -0.55P  
02/20/2020 01:45 EST-1,590P  0.70P  -0.54P  
02/20/2020 02:00 EST-1,400P  0.70P  -0.54P  
02/20/2020 02:15 EST-1,140P  0.70P  -0.54P  
02/20/2020 02:30 EST-848P  0.70P  -0.54P  
02/20/2020 02:45 EST-671P  0.70P  -0.54P  
02/20/2020 03:00 EST-514P  0.70P  -0.54P  
02/20/2020 03:15 EST-258P  0.70P  -0.54P  
02/20/2020 03:30 EST-81.2P  0.70P  -0.54P  
02/20/2020 03:45 EST-238P  0.70P  -0.54P  
02/20/2020 04:00 EST-474P  0.70P  -0.54P  
02/20/2020 04:15 EST-691P  0.70P  -0.54P  
02/20/2020 04:30 EST-1,020P  0.69P  -0.55P  
02/20/2020 04:45 EST-1,280P  0.69P  -0.55P  
02/20/2020 05:00 EST-1,490P  0.68P  -0.56P  
02/20/2020 05:15 EST-1,830P  0.68P  -0.56P  
02/20/2020 05:30 EST-1,910P  0.68P  -0.56P  
02/20/2020 05:45 EST-2,040P  0.65P  -0.59P  
02/20/2020 06:00 EST-2,100P  0.64P  -0.60P  
02/20/2020 06:15 EST-2,060P  0.65P  -0.59P  
02/20/2020 06:30 EST-2,240P  0.65P  -0.59P  
02/20/2020 06:45 EST-2,330P  0.65P  -0.59P  
02/20/2020 07:00 EST-2,530P  0.64P  -0.60P  
02/20/2020 07:15 EST-2,760P  0.64P  -0.60P  
02/20/2020 07:30 EST-3,090P  0.63P  -0.61P  
02/20/2020 07:45 EST-3,430P  0.63P  -0.61P  
02/20/2020 08:00 EST-3,520P  0.62P  -0.62P  
02/20/2020 08:15 EST-3,560P  0.62P  -0.62P  
02/20/2020 08:30 EST-3,620P  0.62P  -0.62P  
02/20/2020 08:45 EST-3,600P  0.62P  -0.62P  
02/20/2020 09:00 EST-3,820P  0.62P  -0.62P  
02/20/2020 09:15 EST-3,870P  0.60P  -0.64P  
02/20/2020 09:30 EST-4,010P  0.60P  -0.64P  
02/20/2020 09:45 EST-4,140P  0.60P  -0.64P  
02/20/2020 10:00 EST-4,160P  0.60P  -0.64P  
02/20/2020 10:15 EST-4,340P  0.60P  -0.64P  
02/20/2020 10:30 EST-4,330P  0.58P  -0.66P  
02/20/2020 10:45 EST-4,400P  0.60P  -0.64P  
02/20/2020 11:00 EST-4,400P  0.60P  -0.64P  
02/20/2020 11:15 EST-4,400P  0.60P  -0.64P  
02/20/2020 11:30 EST-4,510P  0.59P  -0.65P  
02/20/2020 11:45 EST-4,470P  0.59P  -0.65P  
02/20/2020 12:00 EST-4,490P  0.59P  -0.65P  
02/20/2020 12:15 EST-4,400P  0.60P  -0.64P  
02/20/2020 12:30 EST-4,380P  0.60P  -0.64P  
02/20/2020 12:45 EST-4,420P  0.61P  -0.63P  
02/20/2020 13:00 EST-4,320P  0.61P  -0.63P  
02/20/2020 13:15 EST-4,190P  0.63P  -0.61P  
02/20/2020 13:30 EST-4,100P  0.65P  -0.59P  
02/20/2020 13:45 EST-3,900P  0.65P  -0.59P  
02/20/2020 14:00 EST-3,820P  0.65P  -0.59P  
02/20/2020 14:15 EST-3,630P  0.66P  -0.58P  
02/20/2020 14:30 EST-3,420P  0.67P  -0.57P  
02/20/2020 14:45 EST-3,140P  0.67P  -0.57P  
02/20/2020 15:00 EST-3,150P  0.69P  -0.55P  
02/20/2020 15:15 EST-2,810P  0.69P  -0.55P  
02/20/2020 15:30 EST-2,440P  0.72P  -0.52P  
02/20/2020 15:45 EST-2,310P  0.73P  -0.51P  
02/20/2020 16:00 EST-2,230P  0.72P  -0.52P  
02/20/2020 16:15 EST-2,380P  0.70P  -0.54P  
02/20/2020 16:30 EST-2,340P  0.71P  -0.53P  
02/20/2020 16:45 EST-2,130P  0.70P  -0.54P  
02/20/2020 17:00 EST-1,750P  0.72P  -0.52P  
02/20/2020 17:15 EST-1,400P  0.72P  -0.52P  
02/20/2020 17:30 EST-1,010P  0.74P  -0.50P  
02/20/2020 17:45 EST-692P  0.73P  -0.51P  
02/20/2020 18:00 EST-456P  0.73P  -0.51P  
02/20/2020 18:15 EST-495P  0.73P  -0.51P  
02/20/2020 18:30 EST-830P  0.73P  -0.51P  
02/20/2020 18:45 EST-1,010P  0.72P  -0.52P  
02/20/2020 19:00 EST-1,420P  0.75P  -0.49P  
02/20/2020 19:15 EST-1,560P  0.73P  -0.51P  
02/20/2020 19:30 EST-1,380P  0.72P  -0.52P  
02/20/2020 19:45 EST-1,480P  0.73P  -0.51P  
02/20/2020 20:00 EST-2,130P  0.71P  -0.53P  
02/20/2020 20:15 EST-2,600P  0.71P  -0.53P  
02/20/2020 20:30 EST-3,130P  0.70P  -0.54P  
02/20/2020 20:45 EST-3,540P  0.70P  -0.54P  
02/20/2020 21:00 EST-3,760P  0.70P  -0.54P  
02/20/2020 21:15 EST-3,790P  0.69P  -0.55P  
02/20/2020 21:30 EST-4,140P  0.67P  -0.57P  
02/20/2020 21:45 EST-4,400P  0.68P  -0.56P  
02/20/2020 22:00 EST-4,630P  0.67P  -0.57P  
02/20/2020 22:15 EST-4,930P  0.67P  -0.57P  
02/20/2020 22:30 EST-5,270P  0.64P  -0.60P  
02/20/2020 22:45 EST-5,420P  0.61P  -0.63P  
02/20/2020 23:00 EST-5,510P  0.60P  -0.64P  
02/20/2020 23:15 EST-5,430P  0.60P  -0.64P  
02/20/2020 23:30 EST-5,660P  0.59P  -0.65P  
02/20/2020 23:45 EST-6,010P  0.58P  -0.66P  
02/21/2020 00:00 EST-6,440P  0.57P  -0.67P  
02/21/2020 00:15 EST-6,610P  0.57P  -0.67P  
02/21/2020 00:30 EST-6,820P  0.56P  -0.68P  
02/21/2020 00:45 EST-6,860P  0.52P  -0.72P  
02/21/2020 01:00 EST-6,780P  0.51P  -0.73P  
02/21/2020 01:15 EST-7,000P  0.53P  -0.71P  
02/21/2020 01:30 EST-6,980P  0.52P  -0.72P  
02/21/2020 01:45 EST-6,920P  0.52P  -0.72P  
02/21/2020 02:00 EST-6,850P  0.53P  -0.71P  
02/21/2020 02:15 EST-6,630P  0.53P  -0.71P  
02/21/2020 02:30 EST-6,610P  0.51P  -0.73P  
02/21/2020 02:45 EST-6,570P  0.51P  -0.73P  
02/21/2020 03:00 EST-6,240P  0.53P  -0.71P  
02/21/2020 03:15 EST-6,420P  0.52P  -0.72P  
02/21/2020 03:30 EST-6,800P  0.50P  -0.74P  
02/21/2020 03:45 EST-7,020P  0.48P  -0.76P  
02/21/2020 04:00 EST-6,470P  0.52P  -0.72P  
02/21/2020 04:15 EST-6,610P  0.53P  -0.71P  
02/21/2020 04:30 EST-6,990P  0.50P  -0.74P  
02/21/2020 04:45 EST-7,790P  0.44P  -0.80P  
02/21/2020 05:00 EST-8,090P  0.38P  -0.86P  
02/21/2020 05:15 EST-8,470P  0.34P  -0.90P  
02/21/2020 05:30 EST-8,550P  0.33P  -0.91P  
02/21/2020 05:45 EST-8,820P  0.30P  -0.94P  
02/21/2020 06:00 EST-9,040P  0.29P  -0.95P  
02/21/2020 06:15 EST-9,350P  0.27P  -0.97P  
02/21/2020 06:30 EST-9,500P  0.26P  -0.98P  
02/21/2020 06:45 EST-9,670P  0.23P  -1.01P  
02/21/2020 07:00 EST-9,860P  0.22P  -1.02P  
02/21/2020 07:15 EST-9,810P  0.20P  -1.04P  
02/21/2020 07:30 EST-10,100P  0.20P  -1.04P  
02/21/2020 07:45 EST-10,200P  0.19P  -1.05P  

Explanation
  P  Provisional data subject to revision.